Time;durP1;ratioP1;P1;durP2;ratioP2;P2;SDS_P1;SDS_P2;PMS_P1;PMS_P2;Temp;Humidity;BMP_temperature;BMP_pressure;BME280_temperature;BME280_humidity;BME280_pressure;Samples;Min_cycle;Max_cycle;Signal;HPM_P1;HPM_P2
2022/07/06 00:01:34;;;;;;;27.63;24.70;;;20.30;99.20;;;;;;5060093;28;20494;-79
2022/07/06 00:04:02;;;;;;;29.00;25.95;;;20.30;99.10;;;;;;5061568;28;20049;-78
2022/07/06 00:06:29;;;;;;;28.20;25.13;;;20.30;99.20;;;;;;5055778;28;20121;-79
2022/07/06 00:08:55;;;;;;;31.00;25.83;;;20.30;99.30;;;;;;5051543;28;20025;-79
2022/07/06 00:11:21;;;;;;;27.55;24.65;;;20.30;99.30;;;;;;5040234;28;20087;-79
2022/07/06 00:13:46;;;;;;;29.35;25.00;;;20.30;99.40;;;;;;5054925;28;20021;-78
2022/07/06 00:16:12;;;;;;;28.67;25.55;;;20.30;99.50;;;;;;5054897;28;20025;-79
2022/07/06 00:18:38;;;;;;;28.60;25.63;;;20.30;99.40;;;;;;5056517;28;20056;-79
2022/07/06 00:21:04;;;;;;;29.10;26.23;;;20.30;99.30;;;;;;5055444;28;20103;-78
2022/07/06 00:23:30;;;;;;;27.95;25.10;;;20.30;99.40;;;;;;5054544;28;20073;-79
2022/07/06 00:25:55;;;;;;;29.50;26.33;;;20.30;99.40;;;;;;5036305;28;20390;-79
2022/07/06 00:28:21;;;;;;;28.40;24.92;;;20.30;99.40;;;;;;5052902;28;20017;-80
2022/07/06 00:30:47;;;;;;;26.65;23.95;;;20.20;99.50;;;;;;5054266;28;20371;-79
2022/07/06 00:33:13;;;;;;;28.40;25.08;;;20.20;99.40;;;;;;5054240;28;20045;-80
2022/07/06 00:35:38;;;;;;;29.15;26.10;;;20.30;99.40;;;;;;5054227;28;20501;-80
2022/07/06 00:38:04;;;;;;;29.35;25.65;;;20.20;99.50;;;;;;5053532;28;20029;-79
2022/07/06 00:40:30;;;;;;;29.35;25.98;;;20.30;99.40;;;;;;5052377;28;20077;-80
2022/07/06 00:42:56;;;;;;;28.48;25.38;;;20.20;99.30;;;;;;5052420;28;20116;-80
2022/07/06 00:45:22;;;;;;;27.80;25.13;;;20.30;99.30;;;;;;5055451;28;20482;-78
2022/07/06 00:47:48;;;;;;;28.02;25.10;;;20.30;99.30;;;;;;5071334;28;20025;-79
2022/07/06 00:50:21;;;;;;;27.75;24.85;;;20.20;99.30;;;;;;5058227;28;20112;-79
2022/07/06 00:52:52;;;;;;;28.30;25.33;;;20.20;99.30;;;;;;5054565;28;20029;-79
2022/07/06 00:55:21;;;;;;;29.00;25.50;;;20.20;99.20;;;;;;5053397;28;20021;-79
2022/07/06 00:57:48;;;;;;;28.65;25.40;;;20.30;99.20;;;;;;5053573;28;20059;-78
2022/07/06 01:00:16;;;;;;;27.83;24.85;;;20.30;99.30;;;;;;5053425;28;20386;-78
2022/07/06 01:02:42;;;;;;;27.70;24.88;;;20.30;99.20;;;;;;5047722;28;20045;-79
2022/07/06 01:05:10;;;;;;;28.13;25.27;;;20.30;99.20;;;;;;5053555;28;20057;-80
2022/07/06 01:07:38;;;;;;;28.50;25.60;;;20.30;99.20;;;;;;5036747;28;20394;-79
2022/07/06 01:10:05;;;;;;;28.75;25.83;;;20.30;99.10;;;;;;5035337;28;20501;-80
2022/07/06 01:12:31;;;;;;;27.58;24.70;;;20.30;99.00;;;;;;5052785;28;20037;-78
2022/07/06 01:14:57;;;;;;;27.52;24.52;;;20.40;99.00;;;;;;5035276;28;20017;-80
2022/07/06 01:17:23;;;;;;;30.52;24.65;;;20.40;98.80;;;;;;5053077;28;20123;-80
2022/07/06 01:19:49;;;;;;;28.00;25.02;;;20.40;98.70;;;;;;5053106;28;20017;-80
2022/07/06 01:22:15;;;;;;;29.25;25.98;;;20.50;98.70;;;;;;5052974;28;20025;-79
2022/07/06 01:24:41;;;;;;;29.33;26.40;;;20.50;98.60;;;;;;5053449;28;20021;-79
2022/07/06 01:27:07;;;;;;;31.80;28.42;;;20.60;98.40;;;;;;5053133;28;20021;-79
2022/07/06 01:29:34;;;;;;;28.23;25.00;;;20.60;98.10;;;;;;5046062;28;20382;-79
2022/07/06 01:32:01;;;;;;;29.45;26.30;;;20.60;97.90;;;;;;5052823;28;20624;-79
2022/07/06 01:34:27;;;;;;;29.77;26.60;;;20.60;97.90;;;;;;5052498;28;20095;-78
2022/07/06 01:36:53;;;;;;;29.40;26.23;;;20.60;97.80;;;;;;5052798;28;20340;-79
2022/07/06 01:39:19;;;;;;;32.60;27.85;;;20.60;97.60;;;;;;5048010;28;20021;-78
2022/07/06 01:41:45;;;;;;;30.58;27.35;;;20.60;97.50;;;;;;5052609;28;20025;-80
2022/07/06 01:44:11;;;;;;;31.67;28.55;;;20.60;97.60;;;;;;5052464;28;20028;-79
2022/07/06 01:46:37;;;;;;;31.90;28.55;;;20.60;97.80;;;;;;5052417;28;20025;-79
2022/07/06 01:49:03;;;;;;;31.45;28.13;;;20.60;97.70;;;;;;5052766;28;20481;-77
2022/07/06 01:51:29;;;;;;;31.23;27.97;;;20.60;98.00;;;;;;5052461;28;20037;-80
2022/07/06 01:53:55;;;;;;;36.70;30.45;;;20.60;98.00;;;;;;5034381;28;20021;-79
2022/07/06 01:56:21;;;;;;;34.47;30.92;;;20.60;97.50;;;;;;5052650;28;20060;-80
2022/07/06 01:58:47;;;;;;;34.55;31.02;;;20.60;97.40;;;;;;5048655;28;20024;-80
2022/07/06 02:01:16;;;;;;;35.58;29.92;;;20.70;97.30;;;;;;5052216;28;20077;-79
2022/07/06 02:03:42;;;;;;;31.70;27.40;;;20.70;97.30;;;;;;5052256;28;20428;-79
2022/07/06 02:06:08;;;;;;;29.55;26.52;;;20.70;97.30;;;;;;5052359;28;20425;-78
2022/07/06 02:08:35;;;;;;;30.33;27.10;;;20.80;97.10;;;;;;5052528;28;20028;-80
2022/07/06 02:11:07;;;;;;;30.27;27.08;;;20.80;97.10;;;;;;5052372;28;20027;-81
2022/07/06 02:13:34;;;;;;;30.05;26.95;;;20.80;97.00;;;;;;5051962;28;20028;-81
2022/07/06 02:16:00;;;;;;;29.85;26.98;;;20.80;97.00;;;;;;5049672;28;20055;-81
2022/07/06 02:18:26;;;;;;;31.00;26.88;;;20.80;96.90;;;;;;5052187;28;20110;-81
2022/07/06 02:20:51;;;;;;;31.98;26.35;;;20.90;96.80;;;;;;5052151;28;20435;-81
2022/07/06 02:23:17;;;;;;;30.83;27.58;;;20.90;96.60;;;;;;5052123;28;20052;-80
2022/07/06 02:25:43;;;;;;;31.77;24.83;;;21.00;96.40;;;;;;5052122;28;20029;-78
2022/07/06 02:28:09;;;;;;;29.17;26.08;;;21.00;96.30;;;;;;5032759;28;20460;-81
2022/07/06 02:30:41;;;;;;;27.80;25.00;;;21.10;96.30;;;;;;5051751;28;20084;-81
2022/07/06 02:33:07;;;;;;;28.70;25.67;;;21.20;96.00;;;;;;5051890;28;20032;-80
2022/07/06 02:35:33;;;;;;;31.88;25.23;;;21.30;95.80;;;;;;5051686;28;20028;-79
2022/07/06 02:37:58;;;;;;;32.38;25.92;;;21.30;95.80;;;;;;5045043;28;20032;-79
2022/07/06 02:40:24;;;;;;;28.55;25.63;;;21.30;95.50;;;;;;5044621;28;20028;-79
2022/07/06 02:42:50;;;;;;;27.75;24.85;;;21.40;95.50;;;;;;5051955;28;20036;-79
2022/07/06 02:45:16;;;;;;;29.35;25.95;;;21.30;95.50;;;;;;5051952;28;20017;-78
2022/07/06 02:47:41;;;;;;;32.30;27.23;;;21.30;95.40;;;;;;5051797;28;20021;-79
2022/07/06 02:50:07;;;;;;;29.92;26.23;;;21.30;95.30;;;;;;5050634;28;20025;-80
2022/07/06 02:52:33;;;;;;;27.45;24.73;;;21.40;95.30;;;;;;5051800;28;20033;-78
2022/07/06 02:54:59;;;;;;;28.58;25.67;;;21.40;95.10;;;;;;5051979;28;20022;-79
2022/07/06 02:57:25;;;;;;;34.75;31.13;;;21.50;94.90;;;;;;5051959;28;20029;-81
2022/07/06 02:59:50;;;;;;;28.08;25.08;;;21.60;94.80;;;;;;5051811;28;20105;-79
2022/07/06 03:02:17;;;;;;;27.33;23.48;;;21.70;94.60;;;;;;5051201;28;20099;-79
2022/07/06 03:04:43;;;;;;;29.73;25.40;;;21.70;94.30;;;;;;5051653;28;20356;-79
2022/07/06 03:07:09;;;;;;;27.08;23.77;;;21.70;94.30;;;;;;5051435;28;20051;-79
2022/07/06 03:09:34;;;;;;;26.20;23.60;;;21.80;94.10;;;;;;5051766;28;20025;-80
2022/07/06 03:12:00;;;;;;;26.23;23.33;;;22.00;93.90;;;;;;5051705;28;20648;-79
2022/07/06 03:14:26;;;;;;;26.90;23.85;;;22.20;93.60;;;;;;5051685;28;20025;-78
2022/07/06 03:16:52;;;;;;;27.30;23.88;;;22.30;93.00;;;;;;5037721;28;20048;-79
2022/07/06 03:19:18;;;;;;;27.10;24.33;;;22.50;92.80;;;;;;5033532;28;20040;-79
2022/07/06 03:21:44;;;;;;;26.75;24.15;;;22.60;92.40;;;;;;5051699;28;20021;-80
2022/07/06 03:24:10;;;;;;;27.73;24.75;;;22.70;92.20;;;;;;5052053;28;20045;-78
2022/07/06 03:26:39;;;;;;;26.10;23.58;;;22.80;91.90;;;;;;5052549;28;20117;-79
2022/07/06 03:29:05;;;;;;;28.00;24.63;;;23.00;91.60;;;;;;5039193;28;20017;-78
2022/07/06 03:31:35;;;;;;;28.50;24.73;;;22.90;91.50;;;;;;5041470;28;20025;-80
2022/07/06 03:34:00;;;;;;;28.80;24.30;;;23.00;91.50;;;;;;5066439;28;20013;-78
2022/07/06 03:36:26;;;;;;;26.23;23.50;;;23.00;91.50;;;;;;5052284;28;20025;-79
2022/07/06 03:38:52;;;;;;;28.13;24.88;;;;;;;;;;5051322;28;20027;-79
2022/07/06 03:41:18;;;;;;;29.17;26.15;;;23.10;91.10;;;;;;5033070;28;20454;-80
2022/07/06 03:43:44;;;;;;;26.58;23.75;;;23.20;91.10;;;;;;5051271;28;20025;-81
2022/07/06 03:46:10;;;;;;;25.63;22.77;;;23.20;91.10;;;;;;5051067;28;20367;-79
2022/07/06 03:48:35;;;;;;;26.58;23.92;;;23.30;91.70;;;;;;5051353;28;20409;-79
2022/07/06 03:51:01;;;;;;;25.20;22.67;;;23.40;94.70;;;;;;5033697;28;20051;-79
2022/07/06 03:53:27;;;;;;;25.92;22.45;;;23.50;92.00;;;;;;5050825;28;20037;-79
2022/07/06 03:58:37;;;;;;;28.70;23.05;;;23.70;90.10;;;;;;5051386;28;20187;-78
2022/07/06 04:01:03;;;;;;;24.60;22.10;;;24.00;89.50;;;;;;5051631;28;20538;-78
2022/07/06 04:03:29;;;;;;;26.25;23.58;;;24.10;88.50;;;;;;5054673;28;20024;-79
2022/07/06 04:05:54;;;;;;;28.40;23.60;;;24.20;87.90;;;;;;5057057;28;20088;-80
2022/07/06 04:08:20;;;;;;;24.77;22.33;;;24.30;87.00;;;;;;5056410;28;20044;-80
2022/07/06 04:10:46;;;;;;;28.55;25.65;;;24.30;86.60;;;;;;5060694;28;20044;-79
2022/07/06 04:13:12;;;;;;;25.63;23.17;;;24.50;85.80;;;;;;5058383;28;20131;-80
2022/07/06 04:15:39;;;;;;;27.33;24.05;;;24.60;85.30;;;;;;5055167;28;20037;-79
2022/07/06 04:18:05;;;;;;;26.65;23.65;;;24.70;85.70;;;;;;5037100;28;20028;-80
2022/07/06 04:20:30;;;;;;;26.90;24.25;;;24.70;85.10;;;;;;5054519;28;20035;-79
2022/07/06 04:22:56;;;;;;;27.88;24.85;;;24.70;84.50;;;;;;5055805;28;20066;-80
2022/07/06 04:25:22;;;;;;;27.55;24.13;;;24.80;84.90;;;;;;5049461;28;20021;-79
2022/07/06 04:27:48;;;;;;;26.73;23.92;;;24.80;84.70;;;;;;5055680;28;20017;-80
2022/07/06 04:30:13;;;;;;;25.52;22.70;;;24.80;84.70;;;;;;5054405;28;20028;-81
2022/07/06 04:32:39;;;;;;;27.02;24.10;;;24.90;84.20;;;;;;5054014;28;20055;-80
2022/07/06 04:35:06;;;;;;;27.00;24.23;;;24.90;83.80;;;;;;5036207;28;20044;-79
2022/07/06 04:37:32;;;;;;;26.67;21.05;;;25.00;83.80;;;;;;5054303;28;20079;-79
2022/07/06 04:39:58;;;;;;;23.50;20.63;;;25.00;83.40;;;;;;5048668;28;20029;-80
2022/07/06 04:42:25;;;;;;;28.58;23.90;;;24.90;83.60;;;;;;5053367;28;20029;-80
2022/07/06 04:44:53;;;;;;;24.75;22.23;;;24.90;84.10;;;;;;5054100;28;20033;-78
2022/07/06 04:47:19;;;;;;;24.42;21.95;;;24.90;83.40;;;;;;5036701;28;20048;-79
2022/07/06 04:49:45;;;;;;;27.48;21.65;;;25.00;83.40;;;;;;5053866;28;20053;-79
2022/07/06 04:52:10;;;;;;;26.63;21.90;;;25.10;82.40;;;;;;5054199;28;20041;-80
2022/07/06 04:54:37;;;;;;;20.17;18.13;;;25.20;80.90;;;;;;5054547;28;20048;-79
2022/07/06 04:57:03;;;;;;;19.40;17.38;;;25.20;80.00;;;;;;5053999;28;20025;-79
2022/07/06 04:59:29;;;;;;;19.92;17.90;;;25.20;79.40;;;;;;5035897;28;20028;-79
2022/07/06 05:01:55;;;;;;;21.88;18.17;;;25.30;79.00;;;;;;5052658;28;20036;-80
2022/07/06 05:04:21;;;;;;;18.48;16.70;;;25.30;78.30;;;;;;5053762;28;20056;-80
2022/07/06 05:06:47;;;;;;;18.83;16.85;;;25.30;77.90;;;;;;5053382;28;20028;-79
2022/07/06 05:09:14;;;;;;;16.08;14.48;;;25.30;77.80;;;;;;5053575;28;20056;-78
2022/07/06 05:11:40;;;;;;;17.52;15.73;;;25.40;77.30;;;;;;5053845;28;20056;-79
2022/07/06 05:14:06;;;;;;;16.60;15.05;;;25.60;76.80;;;;;;5054127;28;20509;-81
2022/07/06 05:16:32;;;;;;;20.52;16.05;;;26.20;76.50;;;;;;5045833;28;20037;-81
2022/07/06 05:18:59;;;;;;;15.77;14.23;;;27.00;74.30;;;;;;5053297;28;20060;-80
2022/07/06 05:21:25;;;;;;;19.55;17.08;;;27.90;71.10;;;;;;5056951;28;20029;-80
2022/07/06 05:23:51;;;;;;;18.17;15.10;;;28.90;67.50;;;;;;5031241;28;20081;-80
2022/07/06 05:26:17;;;;;;;17.73;16.03;;;29.70;65.20;;;;;;5059951;28;20025;-80
2022/07/06 05:28:43;;;;;;;15.93;14.20;;;30.40;62.30;;;;;;5062528;28;20028;-80
2022/07/06 05:31:08;;;;;;;15.77;14.13;;;31.10;61.10;;;;;;5036364;28;20074;-81
2022/07/06 05:33:34;;;;;;;23.23;14.97;;;31.60;59.00;;;;;;5055744;28;20041;-81
2022/07/06 05:36:00;;;;;;;19.23;14.23;;;32.10;57.50;;;;;;5037842;28;20028;-81
2022/07/06 05:38:26;;;;;;;16.97;13.40;;;32.70;56.40;;;;;;5057252;28;20257;-82
2022/07/06 05:40:52;;;;;;;16.03;14.50;;;33.40;54.30;;;;;;5056732;28;20021;-82
2022/07/06 05:43:18;;;;;;;14.73;12.67;;;34.20;52.40;;;;;;5055970;28;20112;-81
2022/07/06 05:45:44;;;;;;;14.17;11.67;;;34.60;51.30;;;;;;5054413;28;20021;-80
2022/07/06 05:50:55;;;;;;;12.00;11.00;;;35.50;48.70;;;;;;5055254;28;20040;-81
2022/07/06 05:53:21;;;;;;;15.90;12.17;;;35.90;47.30;;;;;;5036578;28;20298;-81
2022/07/06 05:55:47;;;;;;;12.30;10.93;;;36.10;47.50;;;;;;5054993;28;20095;-82
2022/07/06 05:58:13;;;;;;;15.45;11.07;;;36.50;46.40;;;;;;5054427;28;20044;-80
2022/07/06 06:00:39;;;;;;;17.70;12.00;;;37.30;46.10;;;;;;5054876;28;20047;-80
2022/07/06 06:03:05;;;;;;;16.33;11.33;;;37.30;44.30;;;;;;5055344;28;20060;-80
2022/07/06 06:05:34;;;;;;;11.80;10.57;;;37.70;44.80;;;;;;5054858;28;20099;-82
2022/07/06 06:08:01;;;;;;;19.30;10.38;;;38.10;42.70;;;;;;5054498;28;20273;-82
2022/07/06 06:10:27;;;;;;;13.18;10.02;;;38.20;42.30;;;;;;5054909;28;20021;-82
2022/07/06 06:12:52;;;;;;;12.73;9.85;;;38.30;42.10;;;;;;5054755;28;20156;-82
2022/07/06 06:15:19;;;;;;;11.27;10.07;;;39.00;42.70;;;;;;5055866;28;20355;-80
2022/07/06 06:17:45;;;;;;;12.88;10.70;;;39.40;41.90;;;;;;5076621;28;20270;-82
2022/07/06 06:20:13;;;;;;;11.43;10.25;;;39.80;41.20;;;;;;5055211;28;20033;-83
2022/07/06 06:22:50;;;;;;;12.32;11.13;;;40.20;40.50;;;;;;5046951;28;20098;-78
2022/07/06 06:25:21;;;;;;;11.48;10.27;;;40.90;40.00;;;;;;5036022;28;20056;-80
2022/07/06 06:27:47;;;;;;;14.85;10.05;;;41.30;38.90;;;;;;5052257;28;20013;-79
2022/07/06 06:30:13;;;;;;;;;;;42.00;38.80;;;;;;5052614;28;20082;-81
2022/07/06 06:32:40;;;;;;;11.07;9.98;;;42.40;39.90;;;;;;5052167;28;19916;-81
2022/07/06 06:35:06;;;;;;;11.77;10.60;;;42.40;37.10;;;;;;5052348;28;20021;-79
2022/07/06 06:37:34;;;;;;;14.35;11.30;;;42.40;37.10;;;;;;5051920;28;20029;-80
2022/07/06 06:39:59;;;;;;;12.40;10.30;;;42.40;36.60;;;;;;5049732;28;20048;-81
2022/07/06 06:42:25;;;;;;;13.60;10.20;;;41.90;37.30;;;;;;5033904;28;20457;-81
2022/07/06 06:44:51;;;;;;;12.25;10.32;;;42.00;37.40;;;;;;5055764;28;20033;-81
2022/07/06 06:47:19;;;;;;;14.27;11.00;;;41.90;36.90;;;;;;5054185;28;20373;-81
2022/07/06 06:49:44;;;;;;;13.38;10.88;;;41.50;36.90;;;;;;5054774;28;20110;-82
2022/07/06 06:52:10;;;;;;;12.75;10.25;;;42.10;37.00;;;;;;5043931;28;20076;-80
2022/07/06 06:54:36;;;;;;;11.30;10.35;;;42.30;36.60;;;;;;5035365;28;20026;-81
2022/07/06 06:57:02;;;;;;;11.20;10.07;;;42.60;36.70;;;;;;5038364;28;20414;-80
2022/07/06 06:59:28;;;;;;;11.25;9.48;;;43.10;36.00;;;;;;5043987;28;20025;-82
2022/07/06 07:01:53;;;;;;;;;;;43.70;35.60;;;;;;5035884;28;20102;-84
2022/07/06 07:04:19;;;;;;;13.43;12.10;;;44.10;36.60;;;;;;5054166;28;19905;-81
2022/07/06 07:06:45;;;;;;;;;;;43.50;34.80;;;;;;5054661;28;20060;-80
2022/07/06 07:09:10;;;;;;;13.65;12.25;;;42.00;36.60;;;;;;5049435;28;19920;-86
2022/07/06 07:11:38;;;;;;;14.70;13.40;;;41.40;37.20;;;;;;5042534;28;20021;-80
2022/07/06 07:14:04;;;;;;;;;;;41.30;37.30;;;;;;5054460;28;20116;-80
2022/07/06 07:16:30;;;;;;;15.48;12.65;;;41.20;38.00;;;;;;5054709;28;19904;-80
2022/07/06 07:18:55;;;;;;;18.77;15.65;;;40.30;38.40;;;;;;5053846;28;20044;-79
2022/07/06 07:21:21;;;;;;;15.13;13.40;;;40.00;38.70;;;;;;5055904;28;20036;-81
2022/07/06 07:23:49;;;;;;;15.05;13.43;;;40.10;38.90;;;;;;5055904;28;20021;-80
2022/07/06 07:26:15;;;;;;;14.75;12.75;;;40.10;39.00;;;;;;5055160;28;20390;-80
2022/07/06 07:28:41;;;;;;;12.48;11.35;;;39.90;39.70;;;;;;5054804;28;20021;-80
2022/07/06 07:31:06;;;;;;;13.48;11.13;;;40.20;39.00;;;;;;5037661;28;20470;-80
2022/07/06 07:33:32;;;;;;;17.48;11.50;;;39.10;38.90;;;;;;5053863;28;20116;-83
2022/07/06 07:35:58;;;;;;;14.52;11.30;;;38.50;39.60;;;;;;5055422;28;20028;-79
2022/07/06 07:38:24;;;;;;;11.70;10.60;;;37.10;40.70;;;;;;5040632;28;20116;-81
2022/07/06 07:40:49;;;;;;;13.87;12.47;;;36.00;42.20;;;;;;5058400;28;20021;-80
2022/07/06 07:43:15;;;;;;;14.00;12.57;;;35.00;44.30;;;;;;5062917;28;20091;-81
2022/07/06 07:45:41;;;;;;;13.83;12.50;;;34.00;46.40;;;;;;5060492;28;20024;-79
2022/07/06 07:48:07;;;;;;;14.33;12.23;;;33.30;47.20;;;;;;5056937;28;20393;-81
2022/07/06 07:50:34;;;;;;;17.87;12.87;;;32.70;48.70;;;;;;5058057;28;20064;-80
2022/07/06 07:53:00;;;;;;;13.20;11.82;;;32.30;49.80;;;;;;5057825;28;20087;-80
2022/07/06 07:55:26;;;;;;;14.57;12.60;;;32.40;50.30;;;;;;5038256;28;20021;-81
2022/07/06 07:57:52;;;;;;;14.53;12.40;;;32.60;50.40;;;;;;5056715;28;20025;-82
2022/07/06 08:00:18;;;;;;;16.83;13.50;;;32.60;49.60;;;;;;5057168;28;20064;-81
2022/07/06 08:02:44;;;;;;;14.53;12.73;;;33.00;49.90;;;;;;5058099;28;20128;-81
2022/07/06 08:05:13;;;;;;;14.07;12.63;;;34.40;47.70;;;;;;5056750;28;20033;-81
2022/07/06 08:07:40;;;;;;;14.02;12.00;;;34.50;45.80;;;;;;5056805;28;20559;-82
2022/07/06 08:10:09;;;;;;;14.87;12.83;;;35.70;45.10;;;;;;5057431;28;20033;-82
2022/07/06 08:12:35;;;;;;;12.18;10.95;;;38.00;43.20;;;;;;5040052;28;20398;-81
2022/07/06 08:15:01;;;;;;;14.38;11.05;;;40.50;39.20;;;;;;5057443;28;20032;-82
2022/07/06 08:17:27;;;;;;;11.90;10.75;;;41.10;38.20;;;;;;5057584;28;20470;-81
2022/07/06 08:19:53;;;;;;;;;;;42.40;37.30;;;;;;5056481;28;20028;-81
2022/07/06 08:22:19;;;;;;;10.35;8.90;;;43.00;37.50;;;;;;5057447;28;19927;-84
2022/07/06 08:24:44;;;;;;;10.45;9.25;;;42.80;35.10;;;;;;5044407;28;20059;-79
2022/07/06 08:27:10;;;;;;;;;;;42.30;35.20;;;;;;5057470;28;20055;-79
2022/07/06 08:29:36;;;;;;;9.18;8.38;;;42.70;36.50;;;;;;5058185;28;20385;-80
2022/07/06 08:32:02;;;;;;;;;;;44.00;34.80;;;;;;5058346;28;20565;-81
2022/07/06 08:34:28;;;;;;;10.43;9.52;;;45.20;35.10;;;;;;5054566;28;19930;-81
2022/07/06 08:36:54;;;;;;;12.23;9.40;;;;;;;;;;5056450;28;20033;-81
2022/07/06 08:39:20;;;;;;;10.98;9.48;;;45.90;33.70;;;;;;5056864;28;20028;-82
2022/07/06 08:41:48;;;;;;;10.50;9.52;;;45.70;32.80;;;;;;5038653;28;20029;-81
2022/07/06 08:44:17;;;;;;;11.07;9.95;;;44.50;33.10;;;;;;5056758;28;20100;-81
2022/07/06 08:46:44;;;;;;;12.25;10.85;;;43.50;34.50;;;;;;5038798;28;20111;-80
2022/07/06 08:49:15;;;;;;;10.95;9.02;;;43.30;34.80;;;;;;5052995;28;20475;-81
2022/07/06 08:51:41;;;;;;;10.65;8.80;;;44.30;33.70;;;;;;5056337;28;20112;-80
2022/07/06 08:54:08;;;;;;;9.35;8.55;;;44.50;33.20;;;;;;5057659;28;20056;-80
2022/07/06 08:56:34;;;;;;;9.75;8.85;;;44.60;32.60;;;;;;5057577;28;20017;-79
2022/07/06 08:59:01;;;;;;;12.35;9.55;;;45.40;32.90;;;;;;5039552;28;20025;-82
2022/07/06 09:01:27;;;;;;;9.60;8.73;;;46.30;32.50;;;;;;5056435;28;20210;-79
2022/07/06 09:03:55;;;;;;;11.13;8.98;;;46.50;31.80;;;;;;5058839;28;20057;-79
2022/07/06 09:06:27;;;;;;;10.45;9.52;;;46.20;31.60;;;;;;5046052;28;20127;-80
2022/07/06 09:08:56;;;;;;;12.10;10.90;;;46.50;32.10;;;;;;5063777;28;20025;-80
2022/07/06 09:11:23;;;;;;;10.02;9.13;;;46.60;31.70;;;;;;5058183;28;20466;-79
2022/07/06 09:13:51;;;;;;;14.13;9.15;;;;;;;;;;5039476;28;20490;-80
2022/07/06 09:16:17;;;;;;;11.07;9.98;;;;;;;;;;5056429;28;20423;-79
2022/07/06 09:18:44;;;;;;;11.77;10.68;;;;;;;;;;5056288;28;20041;-82
2022/07/06 09:21:11;;;;;;;11.32;9.85;;;;;;;;;;5057403;28;20036;-81
2022/07/06 09:23:38;;;;;;;11.52;10.45;;;;;;;;;;5056100;28;20104;-81
2022/07/06 09:26:07;;;;;;;11.57;10.55;;;;;;;;;;5057412;28;20474;-80
2022/07/06 09:28:46;;;;;;;10.52;9.70;;;;;;;;;;5038361;28;20025;-80
2022/07/06 09:31:12;;;;;;;11.68;10.52;;;43.90;32.90;;;;;;5038690;28;20359;-81
2022/07/06 09:33:38;;;;;;;11.90;10.80;;;43.10;33.90;;;;;;5039636;28;20123;-80
2022/07/06 09:36:08;;;;;;;12.63;11.35;;;43.60;34.20;;;;;;5039281;28;20486;-82
2022/07/06 09:38:34;;;;;;;11.60;10.40;;;44.40;34.00;;;;;;5039134;28;20077;-81
2022/07/06 09:41:02;;;;;;;11.73;10.63;;;45.00;32.70;;;;;;5054743;28;20033;-82
2022/07/06 09:43:30;;;;;;;11.32;10.23;;;45.60;32.30;;;;;;5055364;28;20021;-79
2022/07/06 09:45:56;;;;;;;11.98;11.00;;;45.80;32.00;;;;;;5055393;28;20048;-81
2022/07/06 09:48:25;;;;;;;11.23;9.93;;;45.60;32.10;;;;;;5037912;28;20025;-80
2022/07/06 09:50:58;;;;;;;14.40;10.48;;;45.50;31.30;;;;;;5056197;28;20035;-80
2022/07/06 09:53:26;;;;;;;13.23;12.10;;;44.00;32.10;;;;;;5054396;28;20069;-80
2022/07/06 09:55:53;;;;;;;14.00;12.57;;;41.70;34.30;;;;;;5037240;28;20017;-81
2022/07/06 09:58:20;;;;;;;11.75;10.48;;;41.40;35.50;;;;;;5054030;28;20025;-81
2022/07/06 10:00:47;;;;;;;12.25;11.27;;;41.30;35.30;;;;;;5037719;28;20040;-80
2022/07/06 10:03:15;;;;;;;13.15;11.90;;;41.50;35.50;;;;;;5037049;28;20036;-82
2022/07/06 10:05:49;;;;;;;12.15;11.05;;;41.60;36.00;;;;;;5057772;28;20020;-79
2022/07/06 10:08:16;;;;;;;12.33;11.13;;;42.20;35.40;;;;;;5056364;28;20082;-82
2022/07/06 10:10:43;;;;;;;11.88;10.77;;;43.10;34.80;;;;;;5054434;28;20402;-81
2022/07/06 10:13:10;;;;;;;12.30;11.35;;;43.00;33.90;;;;;;5055022;28;20047;-80
2022/07/06 10:15:38;;;;;;;12.55;11.35;;;42.50;34.50;;;;;;5054546;28;20486;-82
2022/07/06 10:18:07;;;;;;;12.02;10.63;;;41.40;35.30;;;;;;5054844;28;20029;-79
2022/07/06 10:20:36;;;;;;;17.00;12.68;;;40.70;35.50;;;;;;5042609;28;20017;-81
2022/07/06 10:23:03;;;;;;;14.32;12.45;;;40.50;36.70;;;;;;5054791;28;20021;-82
2022/07/06 10:25:31;;;;;;;12.60;11.60;;;40.40;37.60;;;;;;5054759;28;20021;-81
2022/07/06 10:27:57;;;;;;;13.23;11.93;;;40.50;36.60;;;;;;5054811;28;20052;-82
2022/07/06 10:30:27;;;;;;;14.68;11.27;;;40.70;36.50;;;;;;5054974;28;20028;-81
2022/07/06 10:32:55;;;;;;;12.45;10.80;;;40.30;36.70;;;;;;5016156;28;20045;-81
2022/07/06 10:35:21;;;;;;;13.40;12.10;;;39.50;37.10;;;;;;5028027;28;20102;-80
2022/07/06 10:38:07;;;;;;;13.23;12.13;;;38.70;38.20;;;;;;5053519;28;20075;-82
2022/07/06 10:43:18;;;;;;;13.38;12.13;;;37.10;39.70;;;;;;5042971;28;20516;-80
2022/07/06 10:45:44;;;;;;;15.13;13.37;;;;;;;;;;5054767;28;20100;-80
2022/07/06 10:48:15;;;;;;;13.70;12.50;;;35.90;42.30;;;;;;5037106;28;20277;-81
2022/07/06 10:50:49;;;;;;;15.70;14.32;;;35.50;42.10;;;;;;5052994;28;20021;-79
2022/07/06 10:53:17;;;;;;;16.17;13.55;;;;;;;;;;5055363;28;20049;-81
2022/07/06 10:55:47;;;;;;;14.13;12.77;;;34.40;44.20;;;;;;5038097;28;20017;-80
2022/07/06 10:58:14;;;;;;;14.88;13.50;;;34.30;45.50;;;;;;5057213;28;20025;-80
2022/07/06 11:00:53;;;;;;;15.23;13.77;;;34.30;46.00;;;;;;5056722;28;20014;-81
2022/07/06 11:03:38;;;;;;;12.65;11.43;;;34.40;46.10;;;;;;5043816;28;20049;-80
2022/07/06 11:06:13;;;;;;;13.48;12.27;;;34.30;44.30;;;;;;5045871;28;20032;-81
2022/07/06 11:08:59;;;;;;;15.00;13.70;;;33.60;46.00;;;;;;5057813;28;20040;-81
2022/07/06 11:11:31;;;;;;;16.85;13.40;;;33.30;46.40;;;;;;5038546;28;20021;-80
2022/07/06 11:14:01;;;;;;;14.75;13.15;;;33.20;46.80;;;;;;5059362;28;20036;-80
2022/07/06 11:16:33;;;;;;;15.38;13.45;;;33.20;47.20;;;;;;5059347;28;20021;-82
2022/07/06 11:19:05;;;;;;;13.82;12.60;;;33.20;48.00;;;;;;5058467;28;20036;-79
2022/07/06 11:21:44;;;;;;;15.50;13.95;;;33.30;46.60;;;;;;5060530;28;20046;-81
2022/07/06 11:24:13;;;;;;;15.43;13.88;;;33.10;46.80;;;;;;5059809;28;20029;-83
2022/07/06 11:26:39;;;;;;;16.42;14.88;;;32.90;47.20;;;;;;5042430;28;20061;-81
2022/07/06 11:29:07;;;;;;;13.50;12.10;;;32.90;47.60;;;;;;5045079;28;20112;-81
2022/07/06 11:31:38;;;;;;;12.55;11.30;;;32.90;46.70;;;;;;5064552;28;20053;-80
2022/07/06 11:34:05;;;;;;;11.98;10.60;;;32.70;46.10;;;;;;5041075;28;20028;-80
2022/07/06 11:36:32;;;;;;;13.05;11.60;;;;;;;;;;5058763;28;20021;-81
2022/07/06 11:38:58;;;;;;;12.88;10.77;;;32.60;60.40;;;;;;5026189;28;20124;-81
2022/07/06 11:41:24;;;;;;;11.87;10.83;;;32.40;46.70;;;;;;5059135;28;20033;-80
2022/07/06 11:43:51;;;;;;;12.00;10.80;;;32.20;46.00;;;;;;5058579;28;20039;-82
2022/07/06 11:46:18;;;;;;;;;;;32.10;46.80;;;;;;5058535;28;20025;-80
2022/07/06 11:48:49;;;;;;;14.30;10.23;;;32.30;46.60;;;;;;5042249;28;20018;-81
2022/07/06 11:51:15;;;;;;;12.77;10.55;;;32.40;46.80;;;;;;5060441;28;20017;-79
2022/07/06 11:53:50;;;;;;;10.82;9.88;;;32.50;46.70;;;;;;5061731;28;20386;-80
2022/07/06 11:56:18;;;;;;;11.60;10.40;;;32.70;45.70;;;;;;5060924;28;20032;-81
2022/07/06 11:58:46;;;;;;;11.90;10.75;;;32.70;46.00;;;;;;5057255;28;20025;-81
2022/07/06 12:01:13;;;;;;;12.35;11.25;;;32.70;46.60;;;;;;5056799;28;20035;-81
2022/07/06 12:03:39;;;;;;;14.77;13.23;;;32.80;47.40;;;;;;5058685;28;20032;-81
2022/07/06 12:06:07;;;;;;;13.97;12.60;;;32.70;48.10;;;;;;5058833;28;20012;-81
2022/07/06 12:08:47;;;;;;;14.27;11.93;;;32.70;48.00;;;;;;5039921;28;20033;-81
2022/07/06 12:11:22;;;;;;;14.48;13.07;;;32.80;48.00;;;;;;5057926;28;20545;-82
2022/07/06 12:13:51;;;;;;;13.88;12.50;;;32.70;47.70;;;;;;5056753;28;20036;-84
2022/07/06 12:16:17;;;;;;;14.27;12.48;;;32.50;47.30;;;;;;5059277;28;20036;-81
2022/07/06 12:18:46;;;;;;;13.40;12.10;;;32.50;47.50;;;;;;5060194;28;20049;-80
2022/07/06 12:21:16;;;;;;;13.98;12.65;;;32.50;48.20;;;;;;5039807;28;20031;-81
2022/07/06 12:23:47;;;;;;;13.15;12.05;;;32.50;47.80;;;;;;5057290;28;20089;-83
2022/07/06 12:26:15;;;;;;;13.50;12.10;;;32.40;48.40;;;;;;5055950;28;20075;-81
2022/07/06 12:28:42;;;;;;;14.70;13.35;;;32.40;48.80;;;;;;5043971;28;20037;-83
2022/07/06 12:31:08;;;;;;;;;;;32.30;48.90;;;;;;5039203;28;20032;-81
2022/07/06 12:33:34;;;;;;;17.77;13.17;;;32.20;48.60;;;;;;5058057;28;19916;-81
2022/07/06 12:36:11;;;;;;;16.27;14.55;;;31.90;48.80;;;;;;5058078;28;20289;-84
2022/07/06 12:38:47;;;;;;;14.35;12.88;;;31.70;49.80;;;;;;5056599;28;20036;-81
2022/07/06 12:41:34;;;;;;;14.65;13.13;;;31.80;49.90;;;;;;5055893;28;20045;-80
2022/07/06 12:44:04;;;;;;;14.82;13.30;;;31.80;49.50;;;;;;5057970;28;20025;-81